Time;durP1;ratioP1;P1;durP2;ratioP2;P2;SDS_P1;SDS_P2;PMS_P1;PMS_P2;Temp;Humidity;BMP_temperature;BMP_pressure;BME280_temperature;BME280_humidity;BME280_pressure;Samples;Min_cycle;Max_cycle;Signal;HPM_P1;HPM_P2
2021/05/18 05:00:12;;;;;;;3.25;1.80;;;;;;;10.68;73.18;99168.16;5193639;27;20035;-67
2021/05/18 05:15:36;;;;;;;2.50;1.30;;;;;;;10.97;72.44;99183.06;5193784;27;20034;-65
2021/05/18 05:18:02;;;;;;;1.55;1.15;;;;;;;11.04;72.92;99183.09;5195334;27;20030;-66
2021/05/18 05:20:27;;;;;;;4.50;1.45;;;;;;;11.09;72.58;99183.31;5191852;27;32871;-64
2021/05/18 05:22:52;;;;;;;4.18;1.25;;;;;;;11.15;72.21;99182.53;5192340;27;33283;-70
2021/05/18 05:25:18;;;;;;;6.20;1.40;;;;;;;11.24;72.78;99185.03;5194205;27;20383;-66
2021/05/18 05:27:43;;;;;;;4.40;1.60;;;;;;;11.34;72.57;99190.81;5185537;27;36919;-68
2021/05/18 05:30:09;;;;;;;4.90;1.30;;;;;;;11.42;72.25;99187.97;5186179;27;28603;-67
2021/05/18 05:32:35;;;;;;;2.97;1.40;;;;;;;11.51;72.19;99199.28;5127408;27;20094;-66
2021/05/18 05:35:00;;;;;;;1.92;1.10;;;;;;;11.60;72.36;99191.91;5131700;27;20471;-64
2021/05/18 05:37:26;;;;;;;5.90;2.25;;;;;;;11.66;72.15;99197.25;5130275;27;28076;-67
2021/05/18 05:39:52;;;;;;;3.05;1.63;;;;;;;11.74;71.94;99201.59;5131414;27;27796;-71
2021/05/18 05:42:17;;;;;;;3.72;1.63;;;;;;;11.81;71.63;99205.09;5132342;27;20103;-67
2021/05/18 05:44:43;;;;;;;2.88;1.50;;;;;;;11.88;71.76;99201.59;5126612;27;20044;-67
2021/05/18 05:47:08;;;;;;;2.30;1.33;;;;;;;11.96;72.10;99212.13;5098696;27;20043;-67
2021/05/18 05:49:34;;;;;;;6.68;1.50;;;;;;;12.05;71.86;99200.22;5099594;28;20083;-66
2021/05/18 05:52:00;;;;;;;5.45;1.30;;;;;;;12.13;71.42;99208.03;5095971;28;20049;-67
2021/05/18 05:54:25;;;;;;;4.93;1.27;;;;;;;12.14;70.83;99207.00;5099176;27;20119;-66
2021/05/18 05:56:50;;;;;;;4.32;1.92;;;;;;;12.17;70.90;99206.59;5097010;28;37280;-65
2021/05/18 05:59:18;;;;;;;5.25;1.65;;;;;;;12.21;70.49;99206.22;5100209;28;37313;-68
2021/05/18 06:01:43;;;;;;;2.85;1.40;;;;;;;12.23;70.41;99206.81;5099365;28;20032;-67
2021/05/18 06:04:09;;;;;;;4.95;1.92;;;;;;;12.23;70.71;99212.16;5096279;28;20370;-68
2021/05/18 06:06:34;;;;;;;4.90;1.67;;;;;;;12.27;70.39;99208.84;5096196;28;20610;-70
2021/05/18 06:09:00;;;;;;;2.75;1.70;;;;;;;12.28;69.54;99210.50;5093748;28;36933;-67
2021/05/18 06:46:23;;;;;;;3.50;1.75;;;;;;;14.34;69.01;99243.94;5072964;28;20029;-66
2021/05/18 06:48:56;;;;;;;3.20;1.40;;;;;;;14.47;68.91;99249.16;5074472;28;20052;-66
2021/05/18 06:51:21;;;;;;;4.10;1.40;;;;;;;14.54;68.08;99239.22;5082397;28;20044;-65
2021/05/18 06:53:47;;;;;;;2.38;1.48;;;;;;;14.65;67.97;99251.13;5085460;28;20028;-65
2021/05/18 06:56:12;;;;;;;2.83;1.40;;;;;;;14.70;66.89;99243.22;5085241;28;31460;-67
2021/05/18 07:01:07;;;;;;;5.20;1.60;;;;;;;14.86;66.40;99252.56;5081697;28;20494;-67
2021/05/18 07:03:37;;;;;;;3.40;1.67;;;;;;;14.96;66.81;99253.91;5072330;28;20623;-67
2021/05/18 07:06:23;;;;;;;2.00;1.30;;;;;;;15.06;66.60;99262.25;5071150;28;20036;-66
2021/05/18 07:11:14;;;;;;;6.25;1.30;;;;;;;15.31;66.54;99269.41;5071743;28;20453;-67
2021/05/18 07:13:39;;;;;;;5.22;1.65;;;;;;;15.41;66.48;99259.00;5068902;28;27173;-69
2021/05/18 07:16:05;;;;;;;6.80;1.60;;;;;;;15.45;65.90;99265.56;5108308;27;20036;-65
2021/05/18 07:18:30;;;;;;;4.97;1.50;;;;;;;15.48;65.36;99266.97;5095686;28;20102;-67
2021/05/18 07:20:56;;;;;;;3.58;1.52;;;;;;;15.44;64.63;99263.09;5095640;28;20036;-66
2021/05/18 07:23:24;;;;;;;3.58;1.30;;;;;;;15.40;64.16;99268.09;5096251;28;20032;-64
2021/05/18 07:25:50;;;;;;;4.80;1.75;;;;;;;15.39;64.09;99266.44;5086035;28;20055;-64
2021/05/18 07:28:16;;;;;;;5.03;1.60;;;;;;;15.45;64.64;99270.91;5081977;28;20028;-65
2021/05/18 07:30:42;;;;;;;2.85;1.55;;;;;;;15.60;64.41;99275.09;5085664;28;20125;-64
2021/05/18 07:33:07;;;;;;;5.28;1.65;;;;;;;15.71;64.01;99274.31;5084774;28;20488;-64
2021/05/18 07:35:33;;;;;;;3.33;1.60;;;;;;;15.77;64.27;99278.78;5084285;28;20040;-64
2021/05/18 07:37:58;;;;;;;5.22;1.50;;;;;;;15.96;64.02;99281.47;5077839;28;20390;-70
2021/05/18 07:40:23;;;;;;;2.95;1.50;;;;;;;16.16;64.38;99284.69;5073648;28;20061;-67
2021/05/18 07:42:51;;;;;;;7.40;1.83;;;;;;;16.26;63.36;99281.44;5074392;28;30774;-67
2021/05/18 07:45:23;;;;;;;4.30;1.67;;;;;;;16.47;63.90;99277.41;5075041;28;20044;-69
2021/05/18 07:47:48;;;;;;;2.55;1.52;;;;;;;16.76;63.73;99285.63;5074755;28;20025;-68
2021/05/18 07:50:20;;;;;;;3.45;1.63;;;;;;;16.84;62.33;99277.19;5074383;28;20466;-69
2021/05/18 08:06:15;;;;;;;4.43;1.60;;;;;;;17.55;60.47;99287.06;5091670;28;20053;-66
2021/05/18 08:08:41;;;;;;;2.40;1.20;;;;;;;17.61;60.65;99291.50;5095194;28;20033;-68
2021/05/18 08:11:06;;;;;;;5.40;1.38;;;;;;;17.59;59.54;99294.44;5078153;28;20445;-67
2021/05/18 08:13:32;;;;;;;5.30;1.40;;;;;;;17.65;59.96;99291.88;5074772;28;20036;-68
2021/05/18 09:37:24;;;;;;;1.30;0.82;;;;;;;22.72;51.08;99302.88;5090186;28;20029;-69
2021/05/18 09:50:32;;;;;;;3.83;0.77;;;;;;;23.78;47.32;99297.47;5092376;28;20037;-67
2021/05/18 10:36:15;;;;;;;2.70;0.70;;;;;;;20.06;43.04;99307.47;5076363;28;20071;-65
2021/05/18 10:38:43;;;;;;;3.05;0.80;;;;;;;19.87;43.48;99299.69;5076013;28;20793;-67
2021/05/18 10:41:28;;;;;;;5.95;1.38;;;;;;;19.90;44.28;99296.50;5076011;28;20083;-68
2021/05/18 10:44:01;;;;;;;1.52;0.57;;;;;;;20.09;44.98;99296.97;5076590;28;20205;-65
2021/05/18 10:46:28;;;;;;;2.00;0.45;;;;;;;20.08;43.59;99289.06;5075948;28;20052;-68
2021/05/18 10:48:55;;;;;;;2.60;0.40;;;;;;;20.09;44.16;99291.56;5079859;28;20150;-74
2021/05/18 10:51:27;;;;;;;1.95;0.30;;;;;;;20.11;43.70;99294.81;5079210;28;20474;-69
2021/05/18 10:54:07;;;;;;;1.65;0.43;;;;;;;19.93;42.86;99287.06;5085305;28;20091;-68
2021/05/18 10:57:12;;;;;;;2.60;0.38;;;;;;;19.55;42.14;99292.25;5076649;28;20037;-67
2021/05/18 10:59:51;;;;;;;2.63;0.90;;;;;;;19.35;42.43;99298.22;4995404;28;20049;-67
2021/05/18 11:02:28;;;;;;;2.78;0.50;;;;;;;19.18;42.66;99303.66;5065974;28;20044;-68
2021/05/18 11:05:10;;;;;;;1.50;0.80;;;;;;;19.01;42.80;99310.97;5074612;28;20060;-66
2021/05/18 11:07:43;;;;;;;3.92;1.08;;;;;;;18.92;43.62;99315.97;5074615;28;20060;-67
2021/05/18 11:10:18;;;;;;;2.70;0.80;;;;;;;19.23;44.60;99311.00;5074473;28;20026;-66
2021/05/18 11:12:54;;;;;;;2.00;0.70;;;;;;;19.79;46.32;99317.16;5074446;28;20036;-68
2021/05/18 11:15:23;;;;;;;4.25;0.70;;;;;;;20.92;47.74;99320.13;5075473;28;20059;-68
2021/05/18 11:17:50;;;;;;;2.95;1.33;;;;;;;21.56;46.41;99325.69;5081950;28;20086;-69
2021/05/18 11:26:04;;;;;;;1.33;0.60;;;;;;;23.79;46.30;99301.00;5077131;28;20513;-67
2021/05/18 11:28:40;;;;;;;0.82;0.57;;;;;;;24.54;44.94;99299.97;5094083;28;20021;-69
2021/05/18 11:31:07;;;;;;;1.48;0.60;;;;;;;24.52;41.55;99294.00;5090308;28;20082;-67
2021/05/18 11:33:33;;;;;;;3.17;0.70;;;;;;;24.26;41.33;99298.81;5072616;28;20505;-68
2021/05/18 11:36:09;;;;;;;4.72;0.60;;;;;;;24.13;40.86;99292.13;5074587;28;20070;-68
2021/05/18 11:38:36;;;;;;;1.63;0.52;;;;;;;23.83;39.90;99299.34;5073804;28;20036;-68
2021/05/18 11:41:01;;;;;;;0.98;0.50;;;;;;;23.24;38.56;99290.06;5073838;28;20451;-68
2021/05/18 11:43:34;;;;;;;4.13;0.90;;;;;;;22.68;38.91;99291.75;5072388;28;20025;-68
2021/05/18 11:46:09;;;;;;;2.22;0.68;;;;;;;22.09;38.98;99287.59;5073033;28;20036;-68
2021/05/18 11:48:35;;;;;;;2.13;0.50;;;;;;;21.93;40.23;99292.22;5072415;28;20025;-68
2021/05/18 11:51:01;;;;;;;1.45;0.70;;;;;;;22.27;40.47;99287.09;5073487;28;20437;-69
2021/05/18 11:53:48;;;;;;;0.65;0.40;;;;;;;22.31;39.93;99293.63;5073393;28;20032;-68
2021/05/18 11:56:29;;;;;;;5.55;0.77;;;;;;;22.19;39.02;99293.06;5080315;28;20524;-69
2021/05/18 11:59:08;;;;;;;4.30;0.80;;;;;;;22.05;39.20;99295.47;5093720;28;20389;-70
2021/05/18 12:01:38;;;;;;;3.28;0.80;;;;;;;21.60;38.68;99297.78;5091297;28;20033;-69
2021/05/18 12:04:08;;;;;;;2.90;1.05;;;;;;;21.26;38.68;99300.84;5095648;28;20883;-69
2021/05/18 12:06:35;;;;;;;2.40;0.80;;;;;;;20.94;39.24;99290.91;5095153;28;20040;-68
2021/05/18 12:09:00;;;;;;;2.80;1.02;;;;;;;20.67;39.43;99301.78;5094101;28;20033;-68
2021/05/18 12:11:26;;;;;;;4.35;1.00;;;;;;;20.43;39.83;99301.31;5095200;28;20020;-68
2021/05/18 12:13:52;;;;;;;1.88;0.88;;;;;;;20.08;39.87;99308.84;5094781;28;20438;-68
2021/05/18 12:16:19;;;;;;;2.90;1.00;;;;;;;19.76;40.81;99312.22;5093585;28;20481;-68
2021/05/18 12:18:44;;;;;;;2.97;0.90;;;;;;;19.78;41.61;99312.81;5093919;28;20433;-68
2021/05/18 12:21:13;;;;;;;1.52;0.80;;;;;;;19.95;41.70;99322.75;5093209;28;20032;-66
2021/05/18 12:23:39;;;;;;;0.95;0.63;;;;;;;20.00;41.45;99300.34;5094844;28;20493;-67
2021/05/18 12:26:12;;;;;;;0.73;0.55;;;;;;;20.03;41.95;99307.97;5093732;28;20044;-68
2021/05/18 12:28:37;;;;;;;2.00;0.88;;;;;;;20.22;42.25;99314.66;5095135;28;20119;-66
2021/05/18 12:31:03;;;;;;;4.10;0.90;;;;;;;20.41;42.59;99319.72;5093414;28;20886;-68
2021/05/18 12:33:36;;;;;;;2.45;0.60;;;;;;;20.80;42.92;99319.50;5093556;28;20071;-68
2021/05/18 12:36:05;;;;;;;2.22;0.43;;;;;;;21.03;42.15;99329.13;5075504;28;20045;-66
2021/05/18 12:38:31;;;;;;;5.50;0.60;;;;;;;20.98;41.22;99336.41;5081047;28;20045;-72
2021/05/18 12:41:03;;;;;;;1.88;0.88;;;;;;;21.01;41.08;99330.47;5080959;28;20029;-68
2021/05/18 12:43:41;;;;;;;0.85;0.60;;;;;;;20.82;40.74;99320.06;5082705;28;20083;-71
2021/05/18 12:46:11;;;;;;;3.00;0.70;;;;;;;20.81;41.00;99326.56;5093328;28;20782;-66
2021/05/18 12:48:47;;;;;;;2.38;0.70;;;;;;;20.82;40.74;99313.81;5094568;28;20032;-65
2021/05/18 12:51:22;;;;;;;3.20;1.00;;;;;;;20.79;40.45;99321.41;5080871;28;20521;-74
2021/05/18 12:53:48;;;;;;;2.65;0.65;;;;;;;20.73;40.86;99324.31;5074860;28;20021;-65
2021/05/18 12:56:27;;;;;;;2.75;0.90;;;;;;;20.65;41.02;99319.34;5072740;28;38291;-73
2021/05/18 12:59:07;;;;;;;2.17;0.80;;;;;;;20.72;41.43;99328.09;5073248;28;20029;-64
2021/05/18 13:01:40;;;;;;;6.07;3.65;;;;;;;20.77;41.04;99322.72;5074478;28;20087;-64
2021/05/18 13:04:09;;;;;;;2.05;0.70;;;;;;;20.76;40.63;99326.50;5074611;28;20052;-64
2021/05/18 13:53:31;;;;;;;2.70;1.00;;;;;;;20.00;40.73;99367.94;5189726;27;20377;-69
2021/05/18 13:55:57;;;;;;;1.77;0.80;;;;;;;20.16;40.90;99363.53;5190364;27;20119;-68
2021/05/18 13:58:22;;;;;;;1.73;0.90;;;;;;;20.27;40.75;99363.38;5193633;27;20034;-68
2021/05/18 14:00:48;;;;;;;4.00;1.00;;;;;;;20.40;40.64;99361.34;5193001;27;38565;-69
2021/05/18 14:03:13;;;;;;;2.08;1.10;;;;;;;20.48;40.71;99354.66;5173713;27;20458;-69
2021/05/18 14:05:38;;;;;;;3.53;1.00;;;;;;;20.51;40.37;99359.56;5193866;27;20029;-63
2021/05/18 14:11:15;;;;;;;1.63;0.90;;;;;;;20.39;40.22;99359.69;5177040;27;20035;-66
2021/05/18 14:13:43;;;;;;;2.50;1.02;;;;;;;20.40;40.16;99355.94;5193277;27;20062;-67
2021/05/18 14:16:09;;;;;;;1.27;0.80;;;;;;;20.49;40.60;99354.41;5193451;27;20034;-65
2021/05/18 14:18:35;;;;;;;1.30;0.70;;;;;;;20.46;39.85;99349.47;5187533;27;20084;-70
2021/05/18 14:21:03;;;;;;;0.93;0.70;;;;;;;20.29;40.10;99355.00;5192973;27;20038;-66
2021/05/18 14:23:38;;;;;;;3.42;0.60;;;;;;;20.25;40.22;99352.00;5194559;27;20486;-63
2021/05/18 14:26:04;;;;;;;2.15;0.70;;;;;;;20.25;40.77;99360.09;5176991;27;20125;-65
2021/05/18 14:28:29;;;;;;;3.35;0.60;;;;;;;20.37;40.80;99367.28;5171120;27;32319;-64
2021/05/18 14:30:55;;;;;;;0.88;0.50;;;;;;;20.41;40.47;99369.19;5190365;27;35263;-71
2021/05/18 14:33:20;;;;;;;1.45;0.52;;;;;;;20.26;39.85;99371.75;5177227;27;20030;-71
2021/05/18 14:35:45;;;;;;;2.03;0.75;;;;;;;20.04;39.90;99379.88;5193109;27;23715;-69
2021/05/18 14:38:15;;;;;;;2.58;1.35;;;;;;;19.84;39.60;99370.47;5186978;27;27046;-68
2021/05/18 14:45:47;;;;;;;3.88;0.85;;;;;;;19.75;40.11;99383.56;5185773;27;20034;-68
2021/05/18 14:53:54;;;;;;;2.97;0.50;;;;;;;20.06;40.73;99380.44;5183965;27;20050;-70
2021/05/18 14:56:19;;;;;;;1.92;0.60;;;;;;;20.29;40.38;99382.88;5185186;27;20700;-65
2021/05/18 14:58:44;;;;;;;2.47;0.57;;;;;;;20.32;39.71;99378.03;5181841;27;24024;-69
2021/05/18 15:01:10;;;;;;;2.05;0.88;;;;;;;20.24;39.60;99380.13;5171028;27;41783;-70
2021/05/18 15:03:35;;;;;;;1.42;0.60;;;;;;;20.09;39.14;99371.81;5171387;27;33354;-69
2021/05/18 15:06:01;;;;;;;0.77;0.50;;;;;;;19.95;39.43;99391.13;5169585;27;31736;-65
2021/05/18 15:08:26;;;;;;;3.42;1.20;;;;;;;19.85;39.41;99393.72;5171648;27;20035;-68
2021/05/18 15:10:55;;;;;;;4.45;1.00;;;;;;;19.75;39.47;99394.38;5162920;27;20491;-72
2021/05/18 15:13:21;;;;;;;4.15;1.02;;;;;;;19.61;39.51;99393.09;5162173;27;20048;-66
2021/05/18 15:15:46;;;;;;;3.95;1.05;;;;;;;19.42;39.70;99395.25;5153451;27;20026;-72
2021/05/18 15:18:11;;;;;;;5.00;1.30;;;;;;;19.29;39.93;99401.84;5169112;27;35847;-69
2021/05/18 15:20:37;;;;;;;4.93;1.10;;;;;;;19.17;40.35;99401.91;5165228;27;20023;-67
2021/05/18 15:23:02;;;;;;;2.63;1.38;;;;;;;19.04;40.45;99402.25;5156439;27;38277;-70
2021/05/18 15:25:28;;;;;;;4.65;1.38;;;;;;;18.97;40.22;99404.28;5163870;27;20383;-73
2021/05/18 15:27:53;;;;;;;4.35;1.50;;;;;;;18.83;41.19;99401.88;5171395;27;20034;-68
2021/05/18 15:30:19;;;;;;;3.28;1.33;;;;;;;18.71;41.32;99415.44;5170321;27;35372;-69
2021/05/18 15:32:44;;;;;;;3.35;1.08;;;;;;;18.67;41.92;99417.00;5164009;27;20031;-70
2021/05/18 15:35:10;;;;;;;4.10;1.08;;;;;;;18.71;42.45;99414.63;5157709;27;20025;-75
2021/05/18 15:37:35;;;;;;;2.20;1.15;;;;;;;18.85;43.02;99413.25;5164900;27;20023;-74
2021/05/18 15:40:02;;;;;;;2.97;1.42;;;;;;;18.99;42.95;99408.38;5151923;27;20117;-73
2021/05/18 15:42:28;;;;;;;2.40;1.02;;;;;;;19.12;43.45;99409.94;5172303;27;20027;-70
2021/05/18 15:44:53;;;;;;;5.70;1.67;;;;;;;19.25;43.67;99411.50;5163270;27;20064;-71
2021/05/18 15:47:19;;;;;;;7.28;1.25;;;;;;;19.35;43.62;99410.81;5176204;27;20027;-70
2021/05/18 15:49:44;;;;;;;3.45;1.20;;;;;;;19.44;43.80;99409.34;5165689;27;20025;-68
2021/05/18 15:52:09;;;;;;;2.00;1.02;;;;;;;19.42;43.48;99401.50;5167988;27;33283;-66
2021/05/18 15:54:35;;;;;;;4.93;1.20;;;;;;;19.35;43.44;99403.53;5172863;27;20173;-69
2021/05/18 15:57:00;;;;;;;5.45;2.08;;;;;;;19.34;43.80;99404.63;5172124;27;20363;-73
2021/05/18 15:59:26;;;;;;;6.70;1.35;;;;;;;19.40;44.30;99397.41;5174847;27;21538;-70
2021/05/18 16:01:52;;;;;;;3.65;1.30;;;;;;;19.42;44.05;99406.06;5166310;27;20387;-74
2021/05/18 16:04:18;;;;;;;2.38;1.08;;;;;;;19.42;44.23;99406.06;5170136;27;20035;-72
2021/05/18 16:06:44;;;;;;;4.03;1.20;;;;;;;19.38;44.36;99389.56;5176305;27;20441;-75
2021/05/18 16:09:12;;;;;;;6.53;1.42;;;;;;;19.30;44.21;99400.78;5155557;27;20752;-76
2021/05/18 16:11:38;;;;;;;4.45;1.10;;;;;;;19.15;43.97;99401.34;5164421;27;20183;-73
2021/05/18 16:14:04;;;;;;;3.47;1.10;;;;;;;19.04;44.10;99410.34;5150224;27;20073;-70
2021/05/18 16:16:29;;;;;;;3.80;1.20;;;;;;;18.93;44.06;99410.19;5164228;27;20027;-69
2021/05/18 16:18:55;;;;;;;3.58;1.15;;;;;;;18.86;44.47;99404.09;5171790;27;20027;-68
2021/05/18 16:21:23;;;;;;;4.32;1.52;;;;;;;18.85;44.70;99415.13;5156503;27;20349;-70
2021/05/18 16:23:50;;;;;;;7.40;2.40;;;;;;;18.84;45.02;99411.63;5156981;27;20102;-73
2021/05/18 16:26:16;;;;;;;3.63;1.27;;;;;;;18.88;45.01;99417.38;5156910;27;20031;-75
2021/05/18 16:28:41;;;;;;;2.65;0.93;;;;;;;18.85;45.08;99407.84;5156824;27;20027;-70
2021/05/18 16:31:07;;;;;;;2.67;1.17;;;;;;;18.81;44.98;99411.28;5156128;27;20019;-73
2021/05/18 16:33:36;;;;;;;4.00;1.20;;;;;;;18.75;45.29;99418.47;5137662;27;20035;-70
2021/05/18 16:36:03;;;;;;;1.95;1.20;;;;;;;18.63;44.94;99415.84;5156552;27;20031;-70
2021/05/18 16:38:29;;;;;;;3.20;1.25;;;;;;;18.51;44.88;99418.59;5156476;27;20047;-71
2021/05/18 16:40:54;;;;;;;2.97;1.17;;;;;;;18.36;45.07;99415.63;5156163;27;20028;-67
2021/05/18 16:43:23;;;;;;;2.63;1.55;;;;;;;18.19;45.02;99412.84;5156141;27;20031;-71
2021/05/18 16:45:49;;;;;;;3.72;1.48;;;;;;;18.03;45.20;99414.41;5156243;27;20030;-68
2021/05/18 16:48:14;;;;;;;4.40;2.15;;;;;;;17.88;45.47;99429.19;5158156;27;20089;-68
2021/05/18 16:50:40;;;;;;;6.45;1.50;;;;;;;17.85;45.82;99418.88;5170224;27;20027;-64
2021/05/18 16:53:05;;;;;;;2.08;1.23;;;;;;;17.83;45.91;99410.22;5155630;27;20129;-67
2021/05/18 16:55:30;;;;;;;3.45;1.40;;;;;;;17.74;46.07;99412.47;5157023;27;33564;-73
2021/05/18 16:57:56;;;;;;;2.75;1.13;;;;;;;17.66;46.23;99417.38;5157764;27;34262;-70
2021/05/18 17:00:22;;;;;;;3.47;1.67;;;;;;;17.58;46.06;99424.75;5157387;27;33047;-71
2021/05/18 17:02:47;;;;;;;4.20;1.80;;;;;;;17.57;46.50;99423.13;5157522;27;20495;-65
2021/05/18 17:05:13;;;;;;;5.03;1.67;;;;;;;17.53;46.14;99419.25;5157028;27;36936;-73
2021/05/18 17:07:38;;;;;;;4.38;1.63;;;;;;;17.50;46.41;99429.69;5157021;27;38168;-65
2021/05/18 17:10:04;;;;;;;2.13;1.30;;;;;;;17.46;46.57;99423.13;5155487;27;37070;-68
2021/05/18 17:12:30;;;;;;;2.88;1.15;;;;;;;17.43;46.78;99430.63;5156183;27;20042;-69
2021/05/18 17:14:55;;;;;;;2.28;1.10;;;;;;;17.40;46.62;99425.72;5154770;27;29171;-66
2021/05/18 17:17:20;;;;;;;2.72;1.33;;;;;;;17.38;46.86;99427.78;5154370;27;43233;-64
2021/05/18 17:19:46;;;;;;;5.90;1.45;;;;;;;17.37;47.11;99431.56;5154417;27;39550;-72
2021/05/18 17:22:12;;;;;;;6.20;1.55;;;;;;;17.36;47.06;99434.47;5155044;27;24931;-67
2021/05/18 17:24:38;;;;;;;5.22;2.13;;;;;;;17.30;47.01;99438.09;5154099;27;20019;-73
2021/05/18 17:27:04;;;;;;;5.82;1.50;;;;;;;17.28;47.13;99437.50;5154937;27;20468;-64
2021/05/18 17:29:31;;;;;;;4.82;1.50;;;;;;;17.28;47.40;99442.88;5153547;27;20027;-64
2021/05/18 17:31:56;;;;;;;3.13;1.30;;;;;;;17.28;47.67;99437.50;5155982;27;20031;-68
2021/05/18 17:34:22;;;;;;;3.03;1.50;;;;;;;17.25;47.49;99445.00;5156990;27;20036;-64
2021/05/18 17:36:48;;;;;;;4.32;1.35;;;;;;;17.18;47.42;99444.31;5157113;27;20035;-67
2021/05/18 17:39:14;;;;;;;4.20;1.20;;;;;;;17.14;47.66;99448.50;5156666;27;20052;-65
2021/05/18 17:41:39;;;;;;;5.72;1.48;;;;;;;17.12;48.09;99452.47;5137108;27;20049;-74
2021/05/18 17:44:05;;;;;;;3.80;1.33;;;;;;;17.04;47.90;99453.63;5155156;27;20076;-64
2021/05/18 17:46:32;;;;;;;6.82;1.35;;;;;;;16.95;47.76;99458.53;5136770;27;20142;-69
2021/05/18 17:48:58;;;;;;;16.30;10.68;;;;;;;16.82;48.14;99472.94;5155479;27;20031;-66
2021/05/18 17:51:23;;;;;;;4.80;1.52;;;;;;;16.68;47.96;99466.94;5150583;27;20402;-66
2021/05/18 17:53:49;;;;;;;6.13;1.52;;;;;;;16.49;48.00;99466.16;5175963;27;20382;-69
2021/05/18 17:56:14;;;;;;;2.28;1.27;;;;;;;16.24;48.00;99477.03;5176154;27;20027;-64
2021/05/18 17:58:39;;;;;;;3.65;1.30;;;;;;;16.02;48.25;99485.53;5175750;27;24152;-67
2021/05/18 18:01:05;;;;;;;3.80;0.98;;;;;;;15.78;48.48;99479.13;5157320;27;20386;-67
2021/05/18 18:03:30;;;;;;;2.42;1.10;;;;;;;15.54;48.08;99491.53;5175231;27;33281;-68
2021/05/18 18:05:56;;;;;;;4.57;1.35;;;;;;;15.33;48.76;99498.94;5175357;27;34484;-67
2021/05/18 18:08:23;;;;;;;3.40;1.20;;;;;;;15.12;48.87;99492.06;5176123;27;20027;-67
2021/05/18 18:10:49;;;;;;;2.97;1.30;;;;;;;14.93;49.21;99501.09;5176218;27;20023;-69
2021/05/18 18:13:18;;;;;;;3.60;1.80;;;;;;;14.73;49.67;99496.63;5153869;27;20088;-69
2021/05/18 18:15:43;;;;;;;4.85;1.50;;;;;;;14.56;49.43;99497.09;5150471;27;20031;-66
2021/05/18 18:18:09;;;;;;;6.10;3.88;;;;;;;14.43;49.87;99494.47;5155002;27;20407;-66
2021/05/18 18:20:34;;;;;;;4.32;1.90;;;;;;;14.32;50.46;99497.81;5154142;27;35492;-67
2021/05/18 18:23:00;;;;;;;3.33;1.40;;;;;;;14.20;50.70;99500.31;5136525;27;20024;-65
2021/05/18 18:25:25;;;;;;;4.97;1.40;;;;;;;14.09;50.83;99498.31;5159918;27;39232;-66
2021/05/18 18:27:50;;;;;;;4.72;1.50;;;;;;;13.97;51.32;99496.28;5162954;27;20030;-66
2021/05/18 18:30:16;;;;;;;3.03;1.48;;;;;;;13.84;51.33;99499.78;5162884;27;20038;-67
2021/05/18 18:32:42;;;;;;;5.57;1.80;;;;;;;13.72;51.67;99504.13;5135779;27;20450;-69
2021/05/18 18:35:07;;;;;;;4.68;1.70;;;;;;;13.62;51.94;99498.41;5134989;27;36430;-65
2021/05/18 18:37:37;;;;;;;5.45;1.80;;;;;;;13.53;52.21;99495.94;5154499;27;20028;-66
2021/05/18 18:40:04;;;;;;;3.20;1.95;;;;;;;13.41;52.05;99497.59;5157402;27;20027;-66
2021/05/18 18:42:30;;;;;;;4.35;1.60;;;;;;;13.34;52.65;99512.75;5122050;27;20072;-66
2021/05/18 18:44:55;;;;;;;7.07;1.75;;;;;;;13.24;53.01;99513.16;5158317;27;20084;-68
2021/05/18 18:47:20;;;;;;;4.40;2.00;;;;;;;13.17;52.92;99513.16;5157956;27;20024;-67
2021/05/18 18:49:49;;;;;;;3.60;1.88;;;;;;;13.11;53.25;99513.13;5158569;27;20023;-67
2021/05/18 18:52:36;;;;;;;4.22;1.67;;;;;;;13.05;53.25;99514.78;5139227;27;20042;-71
2021/05/18 18:55:00;;;;;;;4.50;2.03;;;;;;;12.96;53.71;99516.03;5158238;27;20031;-70
2021/05/18 18:57:25;;;;;;;6.80;2.08;;;;;;;12.89;53.98;99521.34;5122261;27;20031;-68
2021/05/18 18:59:50;;;;;;;2.67;1.70;;;;;;;12.82;54.56;99515.97;5158234;27;20023;-68
2021/05/18 19:02:16;;;;;;;3.72;1.92;;;;;;;12.74;54.23;99521.50;5157355;27;36151;-70
2021/05/18 19:04:42;;;;;;;3.45;2.17;;;;;;;12.72;55.01;99520.88;5158041;27;20088;-67
2021/05/18 19:07:24;;;;;;;5.75;3.05;;;;;;;12.66;54.56;99525.16;5157592;27;20042;-66
2021/05/18 19:10:11;;;;;;;4.30;2.17;;;;;;;12.63;55.24;99522.06;5157530;27;20046;-69
2021/05/18 19:12:42;;;;;;;4.45;2.00;;;;;;;12.59;55.84;99523.50;5158224;27;20046;-70
2021/05/18 19:15:09;;;;;;;4.53;2.00;;;;;;;12.57;55.58;99533.56;5157295;27;20038;-68
2021/05/18 19:17:35;;;;;;;3.20;1.92;;;;;;;12.58;55.84;99533.38;5157632;27;20031;-67
2021/05/18 19:20:00;;;;;;;6.75;2.40;;;;;;;12.62;56.49;99536.47;5139307;27;20031;-70
2021/05/18 19:22:26;;;;;;;4.50;2.10;;;;;;;12.67;56.79;99539.34;5138416;27;36196;-70
2021/05/18 19:24:51;;;;;;;4.93;2.10;;;;;;;12.69;57.05;99546.13;5157611;27;20034;-73
2021/05/18 19:27:16;;;;;;;6.70;2.10;;;;;;;12.71;56.88;99545.94;5157521;27;20023;-69
2021/05/18 19:29:42;;;;;;;5.20;2.00;;;;;;;12.75;56.95;99552.53;5157633;27;20383;-69
2021/05/18 19:32:07;;;;;;;6.15;2.20;;;;;;;12.76;57.29;99548.84;5138235;27;39024;-71
2021/05/18 19:34:42;;;;;;;5.30;2.08;;;;;;;12.77;57.22;99550.50;5142181;27;30063;-73
2021/05/18 19:42:40;;;;;;;4.35;2.35;;;;;;;12.83;57.83;99560.38;5166400;27;20125;-71
2021/05/18 19:45:17;;;;;;;5.68;2.80;;;;;;;12.83;57.61;99552.34;5159224;27;20035;-69
2021/05/18 19:47:51;;;;;;;5.78;2.42;;;;;;;12.77;58.05;99555.84;5158313;27;20031;-68
2021/05/18 19:50:17;;;;;;;4.05;2.28;;;;;;;12.72;58.01;99552.13;5167852;27;20081;-70
2021/05/18 19:52:45;;;;;;;3.83;2.33;;;;;;;12.64;57.77;99555.78;5168312;27;20398;-67
2021/05/18 19:55:11;;;;;;;4.70;2.25;;;;;;;12.56;57.91;99559.47;5153408;27;21035;-67
2021/05/18 19:57:42;;;;;;;3.75;2.42;;;;;;;12.48;58.56;99560.44;5173277;27;20032;-70
2021/05/18 20:19:27;;;;;;;4.97;2.80;;;;;;;12.32;60.50;99558.91;5022765;28;20039;-71
2021/05/18 20:22:00;;;;;;;6.03;2.80;;;;;;;12.30;59.48;99555.63;5138868;27;20039;-66
2021/05/18 20:24:25;;;;;;;6.35;2.40;;;;;;;12.30;60.48;99546.78;5139676;27;20035;-70
2021/05/18 20:26:51;;;;;;;5.32;2.22;;;;;;;12.27;60.66;99565.88;5156391;27;21230;-69
2021/05/18 20:29:16;;;;;;;4.25;2.05;;;;;;;12.26;60.92;99561.56;5170395;27;20031;-70
2021/05/18 20:31:42;;;;;;;4.90;2.33;;;;;;;12.22;60.90;99558.47;5178819;27;20023;-69
2021/05/18 20:39:14;;;;;;;3.97;2.20;;;;;;;12.11;61.30;99551.84;5179114;27;20027;-69
2021/05/18 20:41:42;;;;;;;3.97;2.17;;;;;;;12.12;61.51;99556.13;5163192;27;20026;-66
2021/05/18 20:44:07;;;;;;;4.85;2.38;;;;;;;12.15;61.67;99563.78;5179097;27;20054;-67
2021/05/18 20:46:33;;;;;;;3.80;2.03;;;;;;;12.16;61.42;99554.72;5178900;27;25298;-67
2021/05/18 20:48:59;;;;;;;5.00;2.65;;;;;;;12.18;61.89;99557.22;5178860;27;20027;-67
2021/05/18 20:51:37;;;;;;;4.28;2.35;;;;;;;12.19;62.43;99554.34;5178097;27;21417;-68
2021/05/18 20:54:04;;;;;;;3.40;2.05;;;;;;;12.22;61.90;99566.47;5159711;27;20030;-64
2021/05/18 20:56:30;;;;;;;4.03;2.38;;;;;;;12.23;62.01;99559.28;5178204;27;20035;-69
2021/05/18 20:58:56;;;;;;;4.88;2.20;;;;;;;12.25;62.45;99557.25;5178327;27;20019;-70
2021/05/18 21:01:21;;;;;;;4.25;2.38;;;;;;;12.26;62.35;99559.72;5177963;27;20026;-69
2021/05/18 21:03:47;;;;;;;4.00;2.20;;;;;;;12.27;62.71;99555.19;5141900;27;26425;-70
2021/05/18 21:06:20;;;;;;;3.90;2.65;;;;;;;12.28;62.19;99559.53;5159562;27;20335;-72
2021/05/18 21:15:46;;;;;;;5.50;3.13;;;;;;;12.21;62.62;99551.47;5152740;27;20499;-66
2021/05/18 21:16:51;;;;;;;6.50;3.40;;;;;;;12.15;61.99;99557.59;5156817;27;20507;-66
2021/05/18 21:19:16;;;;;;;5.13;3.15;;;;;;;12.09;62.41;99550.38;5156733;27;38285;-69
2021/05/18 21:21:42;;;;;;;7.05;3.25;;;;;;;12.03;62.43;99560.00;5156905;27;20930;-73
2021/05/18 21:24:08;;;;;;;5.65;3.15;;;;;;;11.93;62.67;99552.31;5156932;27;32600;-71
2021/05/18 21:26:33;;;;;;;7.93;3.53;;;;;;;11.84;62.64;99548.13;5157176;27;20037;-67
2021/05/18 21:28:58;;;;;;;7.32;3.65;;;;;;;11.73;62.65;99548.63;5156702;27;39729;-71
2021/05/18 21:31:24;;;;;;;8.52;3.72;;;;;;;11.64;62.86;99555.97;5157037;27;20031;-71
2021/05/18 21:33:49;;;;;;;6.63;3.67;;;;;;;11.57;62.68;99544.44;5156745;27;31852;-68
2021/05/18 21:36:15;;;;;;;5.88;3.47;;;;;;;11.48;62.60;99552.56;5157213;27;20035;-68
2021/05/18 21:38:41;;;;;;;6.57;3.20;;;;;;;11.38;63.32;99544.03;5156994;27;20028;-71